TAF LEZG
LEZG 072300Z 0800/0824 24009KT 9999 SCT030 TX13/0813Z TN05/0806Z PROB40 TEMPO 0800/0803 30011KT RA TEMPO 0805/0810 25016G26KT BECMG 0810/0812 30017KT TEMPO 0810/0816 30020G34KT=
METAR LEZG
LEZG 080400Z 25019KT CAVOK 10/02 Q1008=
LEZG 080330Z 26013KT CAVOK 09/02 Q1008=
LEZG 080300Z 30011KT CAVOK 09/03 Q1008=
LEZG 080230Z 29017KT CAVOK 10/02 Q1008=
LEZG 080200Z 26014KT CAVOK 11/03 Q1007=
WC LEZG
WS LEZG
WV LEZG